sensor_id;sensor_type;location;lat;lon;timestamp;P1;durP1;ratioP1;P2;durP2;ratioP2
4428;SDS011;2227;47.810;8.810;2023-03-14T04:49:37;861.08;;;780.60;;
4428;SDS011;2227;47.810;8.810;2023-03-14T04:52:03;840.67;;;760.45;;
4428;SDS011;2227;47.810;8.810;2023-03-14T04:54:30;842.55;;;762.95;;
4428;SDS011;2227;47.810;8.810;2023-03-14T04:56:57;835.13;;;755.67;;
4428;SDS011;2227;47.810;8.810;2023-03-14T04:59:23;839.47;;;760.17;;
4428;SDS011;2227;47.810;8.810;2023-03-14T05:01:50;843.13;;;763.72;;
4428;SDS011;2227;47.810;8.810;2023-03-14T05:04:17;835.70;;;756.50;;
4428;SDS011;2227;47.810;8.810;2023-03-14T05:06:43;835.28;;;755.50;;
4428;SDS011;2227;47.810;8.810;2023-03-14T05:09:10;834.13;;;754.70;;
4428;SDS011;2227;47.810;8.810;2023-03-14T05:11:37;832.10;;;753.13;;
4428;SDS011;2227;47.810;8.810;2023-03-14T05:14:03;840.05;;;760.30;;
4428;SDS011;2227;47.810;8.810;2023-03-14T05:16:30;832.08;;;752.60;;
4428;SDS011;2227;47.810;8.810;2023-03-14T05:18:57;836.65;;;757.25;;
4428;SDS011;2227;47.810;8.810;2023-03-14T05:21:24;827.20;;;747.38;;
4428;SDS011;2227;47.810;8.810;2023-03-14T05:23:50;826.40;;;747.10;;
4428;SDS011;2227;47.810;8.810;2023-03-14T05:26:17;827.55;;;748.45;;
4428;SDS011;2227;47.810;8.810;2023-03-14T05:28:44;837.92;;;757.95;;
4428;SDS011;2227;47.810;8.810;2023-03-14T05:31:11;829.22;;;750.13;;
4428;SDS011;2227;47.810;8.810;2023-03-14T05:33:38;828.97;;;749.47;;
4428;SDS011;2227;47.810;8.810;2023-03-14T05:36:05;846.63;;;766.03;;
4428;SDS011;2227;47.810;8.810;2023-03-14T05:38:32;834.05;;;753.08;;
4428;SDS011;2227;47.810;8.810;2023-03-14T05:40:59;847.83;;;767.42;;
4428;SDS011;2227;47.810;8.810;2023-03-14T05:43:26;840.33;;;760.53;;
4428;SDS011;2227;47.810;8.810;2023-03-14T05:45:52;830.80;;;752.20;;
4428;SDS011;2227;47.810;8.810;2023-03-14T05:48:19;859.50;;;779.50;;
4428;SDS011;2227;47.810;8.810;2023-03-14T05:50:47;854.80;;;775.10;;
4428;SDS011;2227;47.810;8.810;2023-03-14T05:53:14;843.58;;;766.17;;
4428;SDS011;2227;47.810;8.810;2023-03-14T05:55:41;834.97;;;757.10;;
4428;SDS011;2227;47.810;8.810;2023-03-14T05:58:07;845.38;;;767.97;;
4428;SDS011;2227;47.810;8.810;2023-03-14T06:00:34;855.97;;;778.50;;
4428;SDS011;2227;47.810;8.810;2023-03-14T06:03:01;835.92;;;757.72;;
4428;SDS011;2227;47.810;8.810;2023-03-14T06:05:27;823.42;;;745.08;;
4428;SDS011;2227;47.810;8.810;2023-03-14T06:07:54;823.55;;;745.67;;
4428;SDS011;2227;47.810;8.810;2023-03-14T06:10:21;815.22;;;737.63;;
4428;SDS011;2227;47.810;8.810;2023-03-14T06:12:47;826.70;;;748.60;;
4428;SDS011;2227;47.810;8.810;2023-03-14T06:15:14;836.85;;;758.20;;
4428;SDS011;2227;47.810;8.810;2023-03-14T06:17:41;834.70;;;756.15;;
4428;SDS011;2227;47.810;8.810;2023-03-14T06:20:08;836.72;;;758.72;;
4428;SDS011;2227;47.810;8.810;2023-03-14T06:22:35;838.67;;;760.60;;
4428;SDS011;2227;47.810;8.810;2023-03-14T06:25:02;835.43;;;756.43;;
4428;SDS011;2227;47.810;8.810;2023-03-14T06:27:29;833.67;;;755.40;;
4428;SDS011;2227;47.810;8.810;2023-03-14T06:29:56;842.50;;;764.10;;
4428;SDS011;2227;47.810;8.810;2023-03-14T06:32:23;837.20;;;759.22;;
4428;SDS011;2227;47.810;8.810;2023-03-14T06:34:50;839.05;;;761.95;;
4428;SDS011;2227;47.810;8.810;2023-03-14T06:37:17;844.15;;;766.50;;
4428;SDS011;2227;47.810;8.810;2023-03-14T06:39:46;836.80;;;759.20;;
4428;SDS011;2227;47.810;8.810;2023-03-14T06:42:12;843.50;;;765.80;;
4428;SDS011;2227;47.810;8.810;2023-03-14T06:44:39;845.13;;;766.95;;
4428;SDS011;2227;47.810;8.810;2023-03-14T06:47:06;844.40;;;766.60;;
4428;SDS011;2227;47.810;8.810;2023-03-14T06:49:33;852.67;;;774.72;;
4428;SDS011;2227;47.810;8.810;2023-03-14T06:51:59;855.17;;;777.40;;
4428;SDS011;2227;47.810;8.810;2023-03-14T06:54:26;846.42;;;768.72;;
4428;SDS011;2227;47.810;8.810;2023-03-14T06:56:53;849.83;;;771.63;;
4428;SDS011;2227;47.810;8.810;2023-03-14T06:59:19;845.30;;;767.40;;
4428;SDS011;2227;47.810;8.810;2023-03-14T07:01:46;841.20;;;763.47;;
4428;SDS011;2227;47.810;8.810;2023-03-14T07:04:14;851.70;;;773.70;;
4428;SDS011;2227;47.810;8.810;2023-03-14T07:06:41;841.97;;;764.28;;
4428;SDS011;2227;47.810;8.810;2023-03-14T07:09:10;842.65;;;763.95;;
4428;SDS011;2227;47.810;8.810;2023-03-14T07:11:37;848.53;;;770.73;;
4428;SDS011;2227;47.810;8.810;2023-03-14T07:14:04;848.13;;;769.47;;
4428;SDS011;2227;47.810;8.810;2023-03-14T07:16:31;837.97;;;759.92;;
4428;SDS011;2227;47.810;8.810;2023-03-14T07:18:59;834.63;;;756.53;;
4428;SDS011;2227;47.810;8.810;2023-03-14T07:21:26;835.60;;;757.30;;
4428;SDS011;2227;47.810;8.810;2023-03-14T07:23:53;838.00;;;760.20;;
4428;SDS011;2227;47.810;8.810;2023-03-14T07:26:20;839.78;;;762.08;;
4428;SDS011;2227;47.810;8.810;2023-03-14T07:28:47;848.72;;;771.22;;
4428;SDS011;2227;47.810;8.810;2023-03-14T07:31:13;849.50;;;771.53;;
4428;SDS011;2227;47.810;8.810;2023-03-14T07:33:40;854.28;;;775.47;;
4428;SDS011;2227;47.810;8.810;2023-03-14T07:36:07;859.67;;;781.40;;
4428;SDS011;2227;47.810;8.810;2023-03-14T07:38:34;862.35;;;784.30;;
4428;SDS011;2227;47.810;8.810;2023-03-14T07:41:01;883.15;;;805.13;;
4428;SDS011;2227;47.810;8.810;2023-03-14T07:43:30;890.90;;;811.23;;
4428;SDS011;2227;47.810;8.810;2023-03-14T07:45:57;897.42;;;818.22;;
4428;SDS011;2227;47.810;8.810;2023-03-14T07:48:24;893.42;;;815.53;;
4428;SDS011;2227;47.810;8.810;2023-03-14T07:50:53;900.90;;;822.90;;
4428;SDS011;2227;47.810;8.810;2023-03-14T07:53:21;903.05;;;823.05;;
4428;SDS011;2227;47.810;8.810;2023-03-14T07:55:49;895.03;;;816.25;;
4428;SDS011;2227;47.810;8.810;2023-03-14T07:58:17;906.42;;;826.80;;
4428;SDS011;2227;47.810;8.810;2023-03-14T08:00:44;894.38;;;815.58;;
4428;SDS011;2227;47.810;8.810;2023-03-14T08:03:11;902.33;;;822.60;;
4428;SDS011;2227;47.810;8.810;2023-03-14T08:05:38;899.22;;;819.03;;
4428;SDS011;2227;47.810;8.810;2023-03-14T08:08:05;909.05;;;828.72;;
4428;SDS011;2227;47.810;8.810;2023-03-14T08:10:31;917.28;;;836.80;;
4428;SDS011;2227;47.810;8.810;2023-03-14T08:12:59;926.97;;;846.00;;
4428;SDS011;2227;47.810;8.810;2023-03-14T08:15:27;942.38;;;861.55;;
4428;SDS011;2227;47.810;8.810;2023-03-14T08:17:56;947.13;;;865.85;;
4428;SDS011;2227;47.810;8.810;2023-03-14T08:20:24;935.85;;;855.10;;
4428;SDS011;2227;47.810;8.810;2023-03-14T08:22:55;936.53;;;855.63;;
4428;SDS011;2227;47.810;8.810;2023-03-14T08:25:26;933.22;;;851.97;;
4428;SDS011;2227;47.810;8.810;2023-03-14T08:27:54;937.97;;;857.77;;
4428;SDS011;2227;47.810;8.810;2023-03-14T08:30:21;966.58;;;888.53;;
4428;SDS011;2227;47.810;8.810;2023-03-14T08:32:48;996.50;;;917.13;;
4428;SDS011;2227;47.810;8.810;2023-03-14T08:35:15;1020.25;;;941.55;;
4428;SDS011;2227;47.810;8.810;2023-03-14T08:37:42;1056.43;;;978.13;;
4428;SDS011;2227;47.810;8.810;2023-03-14T08:40:09;1080.22;;;999.90;;
4428;SDS011;2227;47.810;8.810;2023-03-14T08:42:37;1095.50;;;999.90;;
4428;SDS011;2227;47.810;8.810;2023-03-14T08:45:04;1088.28;;;999.90;;
4428;SDS011;2227;47.810;8.810;2023-03-14T08:47:32;1071.70;;;991.73;;
4428;SDS011;2227;47.810;8.810;2023-03-14T08:49:59;1054.63;;;974.83;;
4428;SDS011;2227;47.810;8.810;2023-03-14T08:52:25;1055.17;;;976.07;;
4428;SDS011;2227;47.810;8.810;2023-03-14T08:54:52;1057.27;;;979.57;;
4428;SDS011;2227;47.810;8.810;2023-03-14T08:57:19;1091.22;;;999.90;;
4428;SDS011;2227;47.810;8.810;2023-03-14T08:59:47;1103.13;;;999.90;;
4428;SDS011;2227;47.810;8.810;2023-03-14T09:02:14;1088.78;;;999.90;;
4428;SDS011;2227;47.810;8.810;2023-03-14T09:04:41;1084.30;;;999.90;;
4428;SDS011;2227;47.810;8.810;2023-03-14T09:07:07;1077.28;;;999.90;;
4428;SDS011;2227;47.810;8.810;2023-03-14T09:09:34;1093.47;;;999.90;;
4428;SDS011;2227;47.810;8.810;2023-03-14T09:12:01;1103.17;;;999.90;;
4428;SDS011;2227;47.810;8.810;2023-03-14T09:14:27;1099.97;;;999.90;;
4428;SDS011;2227;47.810;8.810;2023-03-14T09:16:54;1079.28;;;999.90;;
4428;SDS011;2227;47.810;8.810;2023-03-14T09:19:21;1073.87;;;996.77;;
4428;SDS011;2227;47.810;8.810;2023-03-14T09:21:48;1072.75;;;995.25;;
4428;SDS011;2227;47.810;8.810;2023-03-14T09:24:15;1062.45;;;984.83;;
4428;SDS011;2227;47.810;8.810;2023-03-14T09:26:42;1061.25;;;980.70;;
4428;SDS011;2227;47.810;8.810;2023-03-14T09:29:09;1019.45;;;940.58;;
4428;SDS011;2227;47.810;8.810;2023-03-14T09:31:36;1008.55;;;929.85;;
4428;SDS011;2227;47.810;8.810;2023-03-14T09:34:03;1001.08;;;920.38;;
4428;SDS011;2227;47.810;8.810;2023-03-14T09:36:30;981.20;;;900.90;;
4428;SDS011;2227;47.810;8.810;2023-03-14T09:38:56;976.85;;;896.55;;
4428;SDS011;2227;47.810;8.810;2023-03-14T09:41:25;965.90;;;886.28;;
4428;SDS011;2227;47.810;8.810;2023-03-14T09:44:04;962.38;;;882.53;;
4428;SDS011;2227;47.810;8.810;2023-03-14T09:46:42;963.45;;;883.85;;
4428;SDS011;2227;47.810;8.810;2023-03-14T09:49:25;963.47;;;883.17;;
4428;SDS011;2227;47.810;8.810;2023-03-14T09:51:55;964.70;;;884.72;;
4428;SDS011;2227;47.810;8.810;2023-03-14T09:54:37;980.58;;;901.08;;
4428;SDS011;2227;47.810;8.810;2023-03-14T09:57:11;988.80;;;908.28;;
4428;SDS011;2227;47.810;8.810;2023-03-14T09:59:46;987.17;;;907.58;;
4428;SDS011;2227;47.810;8.810;2023-03-14T10:02:16;989.05;;;908.22;;
4428;SDS011;2227;47.810;8.810;2023-03-14T10:04:46;973.80;;;892.95;;
4428;SDS011;2227;47.810;8.810;2023-03-14T10:07:15;958.10;;;876.15;;
4428;SDS011;2227;47.810;8.810;2023-03-14T10:09:47;951.60;;;870.85;;
4428;SDS011;2227;47.810;8.810;2023-03-14T10:12:16;937.45;;;856.65;;
4428;SDS011;2227;47.810;8.810;2023-03-14T10:14:45;926.47;;;846.83;;
4428;SDS011;2227;47.810;8.810;2023-03-14T10:17:15;930.90;;;850.97;;
4428;SDS011;2227;47.810;8.810;2023-03-14T10:20:00;918.03;;;838.03;;
4428;SDS011;2227;47.810;8.810;2023-03-14T10:22:28;917.47;;;837.28;;
4428;SDS011;2227;47.810;8.810;2023-03-14T10:24:59;913.13;;;833.72;;
4428;SDS011;2227;47.810;8.810;2023-03-14T10:27:33;924.23;;;844.10;;
4428;SDS011;2227;47.810;8.810;2023-03-14T10:30:02;930.20;;;850.33;;
4428;SDS011;2227;47.810;8.810;2023-03-14T10:32:36;928.83;;;849.45;;
4428;SDS011;2227;47.810;8.810;2023-03-14T10:40:40;920.40;;;840.05;;
4428;SDS011;2227;47.810;8.810;2023-03-14T10:43:13;921.35;;;838.53;;
4428;SDS011;2227;47.810;8.810;2023-03-14T10:45:47;918.88;;;837.08;;
4428;SDS011;2227;47.810;8.810;2023-03-14T10:48:37;915.72;;;833.05;;
4428;SDS011;2227;47.810;8.810;2023-03-14T10:53:44;891.70;;;807.87;;
4428;SDS011;2227;47.810;8.810;2023-03-14T10:56:19;879.42;;;796.70;;
4428;SDS011;2227;47.810;8.810;2023-03-14T10:58:48;871.75;;;788.55;;
4428;SDS011;2227;47.810;8.810;2023-03-14T11:03:54;870.30;;;787.17;;
4428;SDS011;2227;47.810;8.810;2023-03-14T11:06:30;866.63;;;783.97;;
4428;SDS011;2227;47.810;8.810;2023-03-14T11:15:05;864.33;;;782.53;;
4428;SDS011;2227;47.810;8.810;2023-03-14T11:20:26;859.35;;;775.70;;
4428;SDS011;2227;47.810;8.810;2023-03-14T11:23:14;845.47;;;761.92;;
4428;SDS011;2227;47.810;8.810;2023-03-14T11:26:13;848.28;;;764.45;;
4428;SDS011;2227;47.810;8.810;2023-03-14T11:28:57;839.58;;;755.45;;
4428;SDS011;2227;47.810;8.810;2023-03-14T11:31:29;841.05;;;755.55;;
4428;SDS011;2227;47.810;8.810;2023-03-14T11:34:16;816.80;;;728.17;;
4428;SDS011;2227;47.810;8.810;2023-03-14T11:39:19;807.88;;;721.97;;
4428;SDS011;2227;47.810;8.810;2023-03-14T11:41:47;798.83;;;713.00;;
4428;SDS011;2227;47.810;8.810;2023-03-14T11:47:08;797.22;;;710.42;;
4428;SDS011;2227;47.810;8.810;2023-03-14T11:49:52;803.42;;;717.10;;
4428;SDS011;2227;47.810;8.810;2023-03-14T11:54:58;794.25;;;709.45;;
4428;SDS011;2227;47.810;8.810;2023-03-14T11:57:33;796.58;;;712.58;;
4428;SDS011;2227;47.810;8.810;2023-03-14T12:00:12;794.63;;;710.30;;
4428;SDS011;2227;47.810;8.810;2023-03-14T12:08:15;795.33;;;710.83;;
4428;SDS011;2227;47.810;8.810;2023-03-14T12:10:59;789.08;;;705.00;;
4428;SDS011;2227;47.810;8.810;2023-03-14T12:13:39;793.03;;;708.22;;
4428;SDS011;2227;47.810;8.810;2023-03-14T12:16:19;783.45;;;699.63;;
4428;SDS011;2227;47.810;8.810;2023-03-14T12:19:13;777.85;;;694.47;;
4428;SDS011;2227;47.810;8.810;2023-03-14T12:21:43;774.07;;;690.63;;
4428;SDS011;2227;47.810;8.810;2023-03-14T12:24:22;784.58;;;700.20;;
4428;SDS011;2227;47.810;8.810;2023-03-14T12:26:55;773.28;;;689.13;;
4428;SDS011;2227;47.810;8.810;2023-03-14T12:29:24;772.00;;;689.20;;
4428;SDS011;2227;47.810;8.810;2023-03-14T12:34:29;775.80;;;693.47;;
4428;SDS011;2227;47.810;8.810;2023-03-14T12:39:55;777.00;;;694.20;;
4428;SDS011;2227;47.810;8.810;2023-03-14T12:42:59;769.95;;;686.55;;
4428;SDS011;2227;47.810;8.810;2023-03-14T12:45:28;780.78;;;696.85;;
4428;SDS011;2227;47.810;8.810;2023-03-14T12:48:00;773.45;;;688.85;;
4428;SDS011;2227;47.810;8.810;2023-03-14T12:50:52;768.00;;;673.47;;
4428;SDS011;2227;47.810;8.810;2023-03-14T13:01:53;760.28;;;643.28;;
4428;SDS011;2227;47.810;8.810;2023-03-14T13:04:45;750.75;;;647.15;;
4428;SDS011;2227;47.810;8.810;2023-03-14T13:10:22;757.63;;;616.58;;
4428;SDS011;2227;47.810;8.810;2023-03-14T13:15:29;742.63;;;630.88;;
4428;SDS011;2227;47.810;8.810;2023-03-14T13:18:17;735.60;;;643.30;;
4428;SDS011;2227;47.810;8.810;2023-03-14T13:20:53;729.35;;;648.55;;
4428;SDS011;2227;47.810;8.810;2023-03-14T13:23:26;734.00;;;652.53;;
4428;SDS011;2227;47.810;8.810;2023-03-14T13:25:58;734.97;;;655.17;;
4428;SDS011;2227;47.810;8.810;2023-03-14T13:28:26;739.45;;;660.00;;
4428;SDS011;2227;47.810;8.810;2023-03-14T13:30:55;737.92;;;658.25;;
4428;SDS011;2227;47.810;8.810;2023-03-14T13:33:24;741.33;;;661.95;;
4428;SDS011;2227;47.810;8.810;2023-03-14T13:35:58;749.17;;;669.38;;
4428;SDS011;2227;47.810;8.810;2023-03-14T13:38:29;771.08;;;690.90;;
4428;SDS011;2227;47.810;8.810;2023-03-14T13:40:58;777.00;;;697.60;;
4428;SDS011;2227;47.810;8.810;2023-03-14T13:43:27;787.50;;;707.25;;
4428;SDS011;2227;47.810;8.810;2023-03-14T13:46:04;797.97;;;718.47;;
4428;SDS011;2227;47.810;8.810;2023-03-14T13:48:40;801.67;;;722.07;;
4428;SDS011;2227;47.810;8.810;2023-03-14T13:51:18;806.15;;;725.92;;
4428;SDS011;2227;47.810;8.810;2023-03-14T13:53:48;810.45;;;730.70;;
4428;SDS011;2227;47.810;8.810;2023-03-14T13:56:17;826.78;;;746.35;;
4428;SDS011;2227;47.810;8.810;2023-03-14T13:58:45;831.63;;;751.90;;
4428;SDS011;2227;47.810;8.810;2023-03-14T14:01:16;838.13;;;757.87;;
4428;SDS011;2227;47.810;8.810;2023-03-14T14:03:47;852.53;;;771.42;;
4428;SDS011;2227;47.810;8.810;2023-03-14T14:09:00;854.25;;;772.55;;
4428;SDS011;2227;47.810;8.810;2023-03-14T14:11:32;857.03;;;774.67;;
4428;SDS011;2227;47.810;8.810;2023-03-14T14:17:32;827.80;;;746.23;;
4428;SDS011;2227;47.810;8.810;2023-03-14T14:20:07;831.33;;;749.95;;
4428;SDS011;2227;47.810;8.810;2023-03-14T14:22:39;831.38;;;751.03;;
4428;SDS011;2227;47.810;8.810;2023-03-14T14:25:06;831.28;;;751.17;;
4428;SDS011;2227;47.810;8.810;2023-03-14T14:27:35;827.58;;;746.88;;
4428;SDS011;2227;47.810;8.810;2023-03-14T14:30:06;823.92;;;744.13;;
4428;SDS011;2227;47.810;8.810;2023-03-14T14:32:54;828.88;;;748.67;;
4428;SDS011;2227;47.810;8.810;2023-03-14T14:35:56;830.55;;;750.58;;
4428;SDS011;2227;47.810;8.810;2023-03-14T14:38:26;828.70;;;749.40;;
4428;SDS011;2227;47.810;8.810;2023-03-14T14:40:55;829.15;;;749.20;;
4428;SDS011;2227;47.810;8.810;2023-03-14T14:43:27;823.33;;;743.33;;
4428;SDS011;2227;47.810;8.810;2023-03-14T14:45:56;815.40;;;735.00;;
4428;SDS011;2227;47.810;8.810;2023-03-14T14:48:25;811.17;;;731.38;;
4428;SDS011;2227;47.810;8.810;2023-03-14T14:51:00;817.78;;;738.05;;
4428;SDS011;2227;47.810;8.810;2023-03-14T14:56:03;804.88;;;724.97;;
4428;SDS011;2227;47.810;8.810;2023-03-14T14:58:55;797.50;;;718.92;;
4428;SDS011;2227;47.810;8.810;2023-03-14T15:01:32;786.90;;;708.38;;
4428;SDS011;2227;47.810;8.810;2023-03-14T15:04:00;794.90;;;715.80;;
4428;SDS011;2227;47.810;8.810;2023-03-14T15:06:28;794.13;;;714.87;;
4428;SDS011;2227;47.810;8.810;2023-03-14T15:08:55;795.28;;;716.67;;
4428;SDS011;2227;47.810;8.810;2023-03-14T15:11:23;794.60;;;715.77;;
4428;SDS011;2227;47.810;8.810;2023-03-14T15:13:51;791.90;;;713.10;;
4428;SDS011;2227;47.810;8.810;2023-03-14T15:16:20;803.38;;;723.45;;
4428;SDS011;2227;47.810;8.810;2023-03-14T15:18:54;796.38;;;716.47;;
4428;SDS011;2227;47.810;8.810;2023-03-14T15:21:22;783.90;;;704.30;;
4428;SDS011;2227;47.810;8.810;2023-03-14T15:23:49;784.70;;;705.50;;
4428;SDS011;2227;47.810;8.810;2023-03-14T15:26:18;796.95;;;717.92;;
4428;SDS011;2227;47.810;8.810;2023-03-14T15:28:46;789.38;;;710.22;;
4428;SDS011;2227;47.810;8.810;2023-03-14T15:31:14;790.53;;;710.95;;
4428;SDS011;2227;47.810;8.810;2023-03-14T15:33:44;793.33;;;714.22;;
4428;SDS011;2227;47.810;8.810;2023-03-14T15:36:18;802.75;;;724.15;;
4428;SDS011;2227;47.810;8.810;2023-03-14T15:38:56;816.20;;;737.15;;
4428;SDS011;2227;47.810;8.810;2023-03-14T15:41:25;805.30;;;725.88;;
4428;SDS011;2227;47.810;8.810;2023-03-14T15:43:52;805.13;;;725.75;;
4428;SDS011;2227;47.810;8.810;2023-03-14T15:46:20;800.95;;;721.42;;
4428;SDS011;2227;47.810;8.810;2023-03-14T15:48:48;817.08;;;738.53;;
4428;SDS011;2227;47.810;8.810;2023-03-14T15:51:16;808.83;;;729.53;;
4428;SDS011;2227;47.810;8.810;2023-03-14T15:53:43;820.40;;;741.60;;
4428;SDS011;2227;47.810;8.810;2023-03-14T15:56:14;824.17;;;744.67;;
4428;SDS011;2227;47.810;8.810;2023-03-14T15:58:44;827.22;;;747.13;;
4428;SDS011;2227;47.810;8.810;2023-03-14T16:01:15;823.83;;;743.92;;
4428;SDS011;2227;47.810;8.810;2023-03-14T16:03:43;826.40;;;746.67;;
4428;SDS011;2227;47.810;8.810;2023-03-14T16:06:11;830.53;;;749.53;;
4428;SDS011;2227;47.810;8.810;2023-03-14T16:08:38;828.40;;;747.95;;
4428;SDS011;2227;47.810;8.810;2023-03-14T16:11:05;829.47;;;748.88;;
4428;SDS011;2227;47.810;8.810;2023-03-14T16:13:32;838.85;;;758.65;;
4428;SDS011;2227;47.810;8.810;2023-03-14T16:16:02;844.97;;;764.78;;
4428;SDS011;2227;47.810;8.810;2023-03-14T16:18:31;857.78;;;777.75;;
4428;SDS011;2227;47.810;8.810;2023-03-14T16:21:00;868.03;;;787.25;;
4428;SDS011;2227;47.810;8.810;2023-03-14T16:23:31;873.50;;;791.83;;
4428;SDS011;2227;47.810;8.810;2023-03-14T16:26:02;863.22;;;781.83;;
4428;SDS011;2227;47.810;8.810;2023-03-14T16:28:30;856.60;;;775.40;;
4428;SDS011;2227;47.810;8.810;2023-03-14T16:31:01;858.97;;;778.38;;
4428;SDS011;2227;47.810;8.810;2023-03-14T16:33:32;856.88;;;776.88;;
4428;SDS011;2227;47.810;8.810;2023-03-14T16:36:00;862.28;;;782.13;;
4428;SDS011;2227;47.810;8.810;2023-03-14T16:38:34;856.13;;;776.72;;
4428;SDS011;2227;47.810;8.810;2023-03-14T16:41:06;862.97;;;783.67;;
4428;SDS011;2227;47.810;8.810;2023-03-14T16:43:36;869.28;;;789.83;;
4428;SDS011;2227;47.810;8.810;2023-03-14T16:46:03;874.70;;;795.37;;
4428;SDS011;2227;47.810;8.810;2023-03-14T16:48:31;873.08;;;793.47;;
4428;SDS011;2227;47.810;8.810;2023-03-14T16:50:58;855.03;;;774.55;;
4428;SDS011;2227;47.810;8.810;2023-03-14T16:53:25;846.67;;;766.35;;
4428;SDS011;2227;47.810;8.810;2023-03-14T16:55:55;834.85;;;753.95;;
4428;SDS011;2227;47.810;8.810;2023-03-14T16:58:23;829.30;;;748.97;;
4428;SDS011;2227;47.810;8.810;2023-03-14T17:00:50;824.33;;;744.85;;
4428;SDS011;2227;47.810;8.810;2023-03-14T17:03:17;824.05;;;744.33;;
4428;SDS011;2227;47.810;8.810;2023-03-14T17:05:48;817.13;;;736.53;;
4428;SDS011;2227;47.810;8.810;2023-03-14T17:08:17;817.58;;;738.08;;
4428;SDS011;2227;47.810;8.810;2023-03-14T17:10:45;818.80;;;738.70;;
4428;SDS011;2227;47.810;8.810;2023-03-14T17:13:12;817.90;;;737.97;;
4428;SDS011;2227;47.810;8.810;2023-03-14T17:15:43;820.40;;;740.40;;
4428;SDS011;2227;47.810;8.810;2023-03-14T17:18:11;807.22;;;726.42;;
4428;SDS011;2227;47.810;8.810;2023-03-14T17:20:38;808.72;;;727.92;;
4428;SDS011;2227;47.810;8.810;2023-03-14T17:23:06;806.92;;;726.03;;
4428;SDS011;2227;47.810;8.810;2023-03-14T17:25:34;791.25;;;711.45;;
4428;SDS011;2227;47.810;8.810;2023-03-14T17:28:03;786.22;;;707.70;;
4428;SDS011;2227;47.810;8.810;2023-03-14T17:30:30;803.17;;;723.92;;
4428;SDS011;2227;47.810;8.810;2023-03-14T17:32:57;817.93;;;739.03;;
4428;SDS011;2227;47.810;8.810;2023-03-14T17:35:24;811.78;;;733.33;;
4428;SDS011;2227;47.810;8.810;2023-03-14T17:37:51;814.35;;;735.05;;
4428;SDS011;2227;47.810;8.810;2023-03-14T17:40:18;800.15;;;721.38;;
4428;SDS011;2227;47.810;8.810;2023-03-14T17:42:45;795.25;;;715.55;;
4428;SDS011;2227;47.810;8.810;2023-03-14T17:45:12;778.17;;;698.40;;
4428;SDS011;2227;47.810;8.810;2023-03-14T17:47:38;765.22;;;685.63;;
4428;SDS011;2227;47.810;8.810;2023-03-14T17:50:05;759.53;;;680.63;;
4428;SDS011;2227;47.810;8.810;2023-03-14T17:52:33;751.47;;;672.88;;
4428;SDS011;2227;47.810;8.810;2023-03-14T17:55:01;748.53;;;670.42;;
4428;SDS011;2227;47.810;8.810;2023-03-14T17:57:28;749.45;;;670.05;;
4428;SDS011;2227;47.810;8.810;2023-03-14T17:59:55;742.33;;;662.92;;
4428;SDS011;2227;47.810;8.810;2023-03-14T18:02:22;741.30;;;661.67;;
4428;SDS011;2227;47.810;8.810;2023-03-14T18:04:51;737.28;;;657.58;;
4428;SDS011;2227;47.810;8.810;2023-03-14T18:07:18;731.53;;;652.72;;
4428;SDS011;2227;47.810;8.810;2023-03-14T18:09:46;732.75;;;653.95;;
4428;SDS011;2227;47.810;8.810;2023-03-14T18:12:13;736.00;;;656.92;;
4428;SDS011;2227;47.810;8.810;2023-03-14T18:14:39;728.23;;;649.47;;
4428;SDS011;2227;47.810;8.810;2023-03-14T18:17:09;739.67;;;661.27;;
4428;SDS011;2227;47.810;8.810;2023-03-14T18:19:40;740.50;;;662.15;;
4428;SDS011;2227;47.810;8.810;2023-03-14T18:22:07;733.60;;;655.20;;
4428;SDS011;2227;47.810;8.810;2023-03-14T18:24:34;743.30;;;664.00;;
4428;SDS011;2227;47.810;8.810;2023-03-14T18:27:01;745.20;;;666.60;;
4428;SDS011;2227;47.810;8.810;2023-03-14T18:29:27;742.38;;;663.88;;
4428;SDS011;2227;47.810;8.810;2023-03-14T18:31:54;744.95;;;665.75;;
4428;SDS011;2227;47.810;8.810;2023-03-14T18:34:23;743.28;;;664.63;;
4428;SDS011;2227;47.810;8.810;2023-03-14T18:36:50;747.10;;;668.30;;
4428;SDS011;2227;47.810;8.810;2023-03-14T18:39:17;743.58;;;665.17;;
4428;SDS011;2227;47.810;8.810;2023-03-14T18:41:44;752.17;;;673.17;;
4428;SDS011;2227;47.810;8.810;2023-03-14T18:44:11;749.83;;;670.33;;
4428;SDS011;2227;47.810;8.810;2023-03-14T18:46:37;748.53;;;669.17;;
4428;SDS011;2227;47.810;8.810;2023-03-14T18:49:04;738.85;;;659.65;;
4428;SDS011;2227;47.810;8.810;2023-03-14T18:51:31;741.20;;;661.40;;
4428;SDS011;2227;47.810;8.810;2023-03-14T18:53:58;734.65;;;655.80;;
4428;SDS011;2227;47.810;8.810;2023-03-14T18:56:35;735.97;;;657.47;;
4428;SDS011;2227;47.810;8.810;2023-03-14T18:59:02;732.15;;;654.05;;
4428;SDS011;2227;47.810;8.810;2023-03-14T19:01:29;732.97;;;654.90;;
4428;SDS011;2227;47.810;8.810;2023-03-14T19:03:59;741.83;;;663.80;;
4428;SDS011;2227;47.810;8.810;2023-03-14T19:06:28;742.17;;;663.78;;
4428;SDS011;2227;47.810;8.810;2023-03-14T19:08:57;749.75;;;671.35;;
4428;SDS011;2227;47.810;8.810;2023-03-14T19:11:24;745.15;;;665.65;;
4428;SDS011;2227;47.810;8.810;2023-03-14T19:13:52;742.63;;;664.53;;
4428;SDS011;2227;47.810;8.810;2023-03-14T19:16:20;742.50;;;664.10;;
4428;SDS011;2227;47.810;8.810;2023-03-14T19:18:50;739.13;;;660.58;;
4428;SDS011;2227;47.810;8.810;2023-03-14T19:21:25;739.57;;;661.17;;
4428;SDS011;2227;47.810;8.810;2023-03-14T19:23:53;740.05;;;661.78;;
4428;SDS011;2227;47.810;8.810;2023-03-14T19:26:20;742.67;;;664.17;;
4428;SDS011;2227;47.810;8.810;2023-03-14T19:28:47;742.78;;;664.85;;
4428;SDS011;2227;47.810;8.810;2023-03-14T19:31:14;738.90;;;660.75;;
4428;SDS011;2227;47.810;8.810;2023-03-14T19:33:40;737.43;;;659.33;;
4428;SDS011;2227;47.810;8.810;2023-03-14T19:36:10;742.47;;;664.77;;
4428;SDS011;2227;47.810;8.810;2023-03-14T19:38:50;738.28;;;660.58;;
4428;SDS011;2227;47.810;8.810;2023-03-14T19:41:18;735.70;;;658.20;;
4428;SDS011;2227;47.810;8.810;2023-03-14T19:43:46;735.70;;;657.45;;
4428;SDS011;2227;47.810;8.810;2023-03-14T19:46:13;731.20;;;652.63;;
4428;SDS011;2227;47.810;8.810;2023-03-14T19:48:40;728.55;;;650.70;;
4428;SDS011;2227;47.810;8.810;2023-03-14T19:51:07;732.50;;;652.00;;
4428;SDS011;2227;47.810;8.810;2023-03-14T19:53:35;712.42;;;634.85;;
4428;SDS011;2227;47.810;8.810;2023-03-14T19:56:01;711.30;;;632.85;;
4428;SDS011;2227;47.810;8.810;2023-03-14T19:58:31;714.72;;;635.95;;
4428;SDS011;2227;47.810;8.810;2023-03-14T20:00:58;707.90;;;619.30;;
4428;SDS011;2227;47.810;8.810;2023-03-14T20:03:26;710.67;;;628.10;;
4428;SDS011;2227;47.810;8.810;2023-03-14T20:05:52;708.95;;;621.45;;
4428;SDS011;2227;47.810;8.810;2023-03-14T20:08:20;709.05;;;616.45;;
4428;SDS011;2227;47.810;8.810;2023-03-14T20:10:47;706.40;;;613.93;;
4428;SDS011;2227;47.810;8.810;2023-03-14T20:13:14;702.08;;;606.97;;
4428;SDS011;2227;47.810;8.810;2023-03-14T20:15:47;710.55;;;617.28;;
4428;SDS011;2227;47.810;8.810;2023-03-14T20:18:14;707.80;;;593.90;;
4428;SDS011;2227;47.810;8.810;2023-03-14T20:20:40;704.87;;;582.03;;
4428;SDS011;2227;47.810;8.810;2023-03-14T20:23:07;707.25;;;574.78;;
4428;SDS011;2227;47.810;8.810;2023-03-14T20:25:34;707.65;;;568.55;;